Time;durP1;ratioP1;P1;durP2;ratioP2;P2;SDS_P1;SDS_P2;PMS_P1;PMS_P2;Temp;Humidity;BMP_temperature;BMP_pressure;BME280_temperature;BME280_humidity;BME280_pressure;Samples;Min_cycle;Max_cycle;Signal;HPM_P1;HPM_P2
2023/09/03 00:00:29;;;;;;;14.40;9.27;;;;;;;;;;6250215;28;20038;-58
2023/09/03 00:03:50;;;;;;;12.05;8.68;;;;;;;;;;6242606;28;20510;-59
2023/09/03 00:06:50;;;;;;;16.00;8.85;;;;;;;;;;6244131;28;20041;-59
2023/09/03 00:09:51;;;;;;;11.87;8.60;;;;;;;;;;6242710;28;20400;-59
2023/09/03 00:12:51;;;;;;;16.08;9.77;;;;;;;;;;6245372;28;20140;-59
2023/09/03 00:15:52;;;;;;;14.20;9.80;;;;;;;;;;6248577;28;20049;-59
2023/09/03 00:18:53;;;;;;;21.30;9.15;;;;;;;;;;6244202;28;20053;-57
2023/09/03 00:21:53;;;;;;;21.08;8.32;;;;;;;;;;6244893;28;20434;-59
2023/09/03 00:24:54;;;;;;;13.63;8.88;;;;;;;;;;6254119;28;20049;-59
2023/09/03 00:27:55;;;;;;;12.55;8.75;;;;;;;;;;6251317;28;20783;-58
2023/09/03 00:30:59;;;;;;;12.10;8.15;;;;;;;;;;6249961;28;20037;-59
2023/09/03 00:34:00;;;;;;;12.00;8.38;;;;;;;;;;6251846;28;20067;-59
2023/09/03 00:37:00;;;;;;;14.45;8.65;;;;;;;;;;6249770;28;20049;-58
2023/09/03 00:40:02;;;;;;;14.63;8.98;;;;;;;;;;6257960;28;20037;-58
2023/09/03 00:43:03;;;;;;;;;;;;;;;;;;6254023;28;20136;-58
2023/09/03 00:46:08;;;;;;;17.10;11.15;;;;;;;;;;6245696;28;20440;-59
2023/09/03 00:49:19;;;;;;;14.43;9.93;;;;;;;;;;6247842;28;20040;-59
2023/09/03 00:52:21;;;;;;;13.60;9.57;;;;;;;;;;6250647;28;20057;-59
2023/09/03 00:55:22;;;;;;;15.05;10.55;;;;;;;;;;6253574;28;20057;-59
2023/09/03 00:58:23;;;;;;;16.20;10.57;;;;;;;;;;6249157;28;20152;-58
2023/09/03 01:01:24;;;;;;;17.60;10.43;;;;;;;;;;6252925;28;20053;-59
2023/09/03 01:04:24;;;;;;;15.10;10.43;;;;;;;;;;6246508;28;20917;-59
2023/09/03 01:07:25;;;;;;;16.50;10.75;;;;;;;;;;6249238;28;20064;-59
2023/09/03 01:10:34;;;;;;;17.17;10.73;;;;;;;;;;6248978;28;20404;-59
2023/09/03 01:13:58;;;;;;;15.88;9.95;;;;;;;;;;6250800;28;20393;-59
2023/09/03 01:17:39;;;;;;;15.43;10.05;;;;;;;;;;6260869;28;20056;-59
2023/09/03 01:21:06;;;;;;;14.75;9.77;;;;;;;;;;6252295;28;20068;-58
2023/09/03 01:24:28;;;;;;;15.50;9.93;;;;;;;;;;6249187;28;20041;-58
2023/09/03 01:27:49;;;;;;;12.90;9.00;;;;;;;;;;6247728;28;22148;-57
2023/09/03 01:30:54;;;;;;;15.98;10.75;;;;;;;;;;6251885;28;20504;-58
2023/09/03 01:34:02;;;;;;;16.88;11.00;;;;;;;;;;6249128;28;20033;-59
2023/09/03 01:37:04;;;;;;;16.40;10.23;;;;;;;;;;6247886;28;20049;-58
2023/09/03 01:40:05;;;;;;;13.95;9.98;;;;;;;;;;6250138;28;20033;-58
2023/09/03 01:43:05;;;;;;;17.95;11.80;;;;;;;;;;6251315;28;20053;-59
2023/09/03 01:46:13;;;;;;;18.88;12.00;;;;;;;;;;6246761;28;20065;-59
2023/09/03 01:49:36;;;;;;;15.20;11.13;;;;;;;;;;6251505;28;20659;-58
2023/09/03 01:52:57;;;;;;;19.48;12.73;;;;;;;;;;6248524;28;20045;-59
2023/09/03 01:56:00;;;;;;;24.50;12.05;;;;;;;;;;6244231;28;20049;-58
2023/09/03 01:59:11;;;;;;;21.48;12.10;;;;;;;;;;6248138;28;20067;-58
2023/09/03 02:02:13;;;;;;;18.13;11.90;;;;;;;;;;6250038;28;20045;-58
2023/09/03 02:05:13;;;;;;;19.17;12.77;;;;;;;;;;6249672;28;20057;-58
2023/09/03 02:08:14;;;;;;;17.00;12.15;;;;;;;;;;6247819;28;20076;-58
2023/09/03 02:11:15;;;;;;;21.40;11.23;;;;;;;;;;6247598;28;20060;-59
2023/09/03 02:14:15;;;;;;;19.05;11.80;;;;;;;;;;6248474;28;20057;-58
2023/09/03 02:17:19;;;;;;;19.05;12.05;;;;;;;;;;6248796;28;20066;-59
2023/09/03 02:20:20;;;;;;;16.92;11.88;;;;;;;;;;6248328;28;20409;-59
2023/09/03 02:23:20;;;;;;;17.90;10.55;;;;;;;;;;6251061;28;20120;-58
2023/09/03 02:26:21;;;;;;;17.08;11.30;;;;;;;;;;6249368;28;20692;-59
2023/09/03 02:29:21;;;;;;;20.48;12.40;;;;;;;;;;6248240;28;20041;-57
2023/09/03 02:32:22;;;;;;;18.92;12.32;;;;;;;;;;6249367;28;20050;-57
2023/09/03 02:35:23;;;;;;;19.90;13.43;;;;;;;;;;6251422;28;20441;-58
2023/09/03 02:38:24;;;;;;;21.90;12.60;;;;;;;;;;6247217;28;20056;-59
2023/09/03 02:41:24;;;;;;;19.20;12.82;;;;;;;;;;6247012;28;20069;-59
2023/09/03 02:44:25;;;;;;;19.23;12.50;;;;;;;;;;6245698;28;21662;-58
2023/09/03 02:47:27;;;;;;;20.10;12.38;;;;;;;;;;6245733;28;20496;-59
2023/09/03 02:50:27;;;;;;;;;;;;;;;;;;6250437;28;20041;-58
2023/09/03 02:53:28;;;;;;;22.45;12.98;;;;;;;;;;6248833;28;19929;-57
2023/09/03 02:56:29;;;;;;;16.80;12.30;;;;;;;;;;6248032;28;20447;-58
2023/09/03 02:59:31;;;;;;;17.52;12.00;;;;;;;;;;6244263;28;20060;-58
2023/09/03 03:02:32;;;;;;;16.42;11.57;;;;;;;;;;6246020;28;20048;-58
2023/09/03 03:05:33;;;;;;;20.20;12.23;;;;;;;;;;6246573;28;20662;-58
2023/09/03 03:08:34;;;;;;;21.73;12.25;;;;;;;;;;6251833;28;20048;-57
2023/09/03 03:11:34;;;;;;;21.30;12.75;;;;;;;;;;6243640;28;20041;-59
2023/09/03 03:14:35;;;;;;;17.38;11.93;;;;;;;;;;6247190;28;20440;-60
2023/09/03 03:17:36;;;;;;;19.55;11.68;;;;;;;;;;6248221;28;20439;-59
2023/09/03 03:20:36;;;;;;;16.60;11.45;;;;;;;;;;6242500;28;20091;-58
2023/09/03 03:23:38;;;;;;;16.63;11.88;;;;;;;;;;6244923;28;20074;-57
2023/09/03 03:26:38;;;;;;;18.75;11.85;;;;;;;;;;6247743;28;20041;-58
2023/09/03 03:29:39;;;;;;;17.17;11.15;;;;;;;;;;6249944;28;20177;-58
2023/09/03 03:32:40;;;;;;;15.98;11.70;;;;;;;;;;6247246;28;20042;-58
2023/09/03 03:35:41;;;;;;;19.25;12.07;;;;;;;;;;6246547;28;20288;-57
2023/09/03 03:38:42;;;;;;;19.75;11.88;;;;;;;;;;6245431;28;20053;-58
2023/09/03 03:41:42;;;;;;;15.83;11.43;;;;;;;;;;6242858;28;20956;-58
2023/09/03 03:44:43;;;;;;;18.40;11.68;;;;;;;;;;6244424;28;20307;-58
2023/09/03 03:47:44;;;;;;;17.33;11.88;;;;;;;;;;6245719;28;20068;-59
2023/09/03 03:50:44;;;;;;;22.92;12.93;;;;;;;;;;6243939;28;20107;-57
2023/09/03 03:53:45;;;;;;;20.17;12.63;;;;;;;;;;6246904;28;20535;-59
2023/09/03 03:56:45;;;;;;;18.38;12.30;;;;;;;;;;6248086;28;20504;-58
2023/09/03 03:59:46;;;;;;;20.10;12.52;;;;;;;;;;6243958;28;20041;-59
2023/09/03 04:02:46;;;;;;;18.67;12.68;;;;;;;;;;6247089;28;20599;-57
2023/09/03 04:05:56;;;;;;;17.63;11.75;;;;;;;;;;6243431;28;20122;-59
2023/09/03 04:08:56;;;;;;;19.05;12.15;;;;;;;;;;6242974;28;20048;-60
2023/09/03 04:11:57;;;;;;;17.58;11.75;;;;;;;;;;6253152;28;20053;-59
2023/09/03 04:14:57;;;;;;;17.75;12.38;;;;;;;;;;6248675;28;20037;-59
2023/09/03 04:17:58;;;;;;;21.13;13.75;;;;;;;;;;6247640;28;20045;-58
2023/09/03 04:20:58;;;;;;;19.92;13.63;;;;;;;;;;6244970;28;20040;-58
2023/09/03 04:24:00;;;;;;;20.27;13.80;;;;;;;;;;6242910;28;20037;-59
2023/09/03 04:27:00;;;;;;;24.77;14.65;;;;;;;;;;6250087;28;20043;-58
2023/09/03 04:30:02;;;;;;;33.15;18.15;;;;;;;;;;6250436;28;20504;-56
2023/09/03 04:33:04;;;;;;;30.65;18.55;;;;;;;;;;6249876;28;20104;-59
2023/09/03 04:36:05;;;;;;;28.35;17.70;;;;;;;;;;6246096;28;20041;-59
2023/09/03 04:39:05;;;;;;;28.55;17.80;;;;;;;;;;6245556;28;20518;-59
2023/09/03 04:42:07;;;;;;;26.35;16.85;;;;;;;;;;6245472;28;20197;-58
2023/09/03 04:45:07;;;;;;;27.75;17.50;;;;;;;;;;6246683;28;20138;-57
2023/09/03 04:48:08;;;;;;;32.30;19.38;;;;;;;;;;6243473;28;20038;-58
2023/09/03 04:51:09;;;;;;;29.83;19.23;;;;;;;;;;6241287;28;20045;-56
2023/09/03 04:54:09;;;;;;;29.05;18.20;;;;;;;;;;6244662;28;20462;-58
2023/09/03 04:57:10;;;;;;;26.35;16.83;;;;;;;;;;6246946;28;20102;-59
2023/09/03 05:00:11;;;;;;;26.45;16.75;;;;;;;;;;6243802;28;20037;-59
2023/09/03 05:03:12;;;;;;;26.70;17.50;;;;;;;;;;6240072;28;20058;-58
2023/09/03 05:06:14;;;;;;;25.17;15.98;;;;;;;;;;6245312;28;20161;-59
2023/09/03 05:09:14;;;;;;;27.88;15.93;;;;;;;;;;6247044;28;20178;-58
2023/09/03 05:12:15;;;;;;;28.77;17.67;;;;;;;;;;6245597;28;20156;-55
2023/09/03 05:15:15;;;;;;;30.33;18.52;;;;;;;;;;6266410;28;20057;-53
2023/09/03 05:18:16;;;;;;;28.25;17.90;;;;;;;;;;6255011;28;20454;-55
2023/09/03 05:21:16;;;;;;;24.50;17.48;;;;;;;;;;6266846;28;20404;-58
2023/09/03 05:24:17;;;;;;;28.13;18.40;;;;;;;;;;6260195;28;20566;-53
2023/09/03 05:27:18;;;;;;;29.50;20.27;;;;;;;;;;6258092;28;20043;-58
2023/09/03 05:30:19;;;;;;;32.17;19.20;;;;;;;;;;6266393;28;20048;-59
2023/09/03 05:33:20;;;;;;;30.90;18.80;;;;;;;;;;6267376;28;20044;-59
2023/09/03 05:36:21;;;;;;;28.10;18.20;;;;;;;;;;6267914;28;20041;-57
2023/09/03 05:39:21;;;;;;;31.45;19.48;;;;;;;;;;6268142;28;20463;-59
2023/09/03 05:42:22;;;;;;;29.70;18.60;;;;;;;;;;6266774;28;20053;-55
2023/09/03 05:45:23;;;;;;;27.80;19.10;;;;;;;;;;6259503;28;20060;-57
2023/09/03 05:48:23;;;;;;;28.90;19.10;;;;;;;;;;6264648;28;20059;-56
2023/09/03 05:51:24;;;;;;;29.30;19.77;;;;;;;;;;6255754;28;20511;-58
2023/09/03 05:54:25;;;;;;;32.33;18.88;;;;;;;;;;6267570;28;20515;-56
2023/09/03 05:57:25;;;;;;;30.80;19.58;;;;;;;;;;6253914;28;20044;-58
2023/09/03 06:00:26;;;;;;;29.20;18.83;;;;;;;;;;6265195;28;20073;-58
2023/09/03 06:03:26;;;;;;;26.27;17.70;;;;;;;;;;6264796;28;20052;-57
2023/09/03 06:06:27;;;;;;;28.27;18.77;;;;;;;;;;6248172;28;20493;-57
2023/09/03 06:09:28;;;;;;;28.42;19.00;;;;;;;;;;6244009;28;20501;-58
2023/09/03 06:12:28;;;;;;;29.33;18.75;;;;;;;;;;6245676;28;20127;-58
2023/09/03 06:15:29;;;;;;;27.40;17.90;;;;;;;;;;6244382;28;20444;-57
2023/09/03 06:18:29;;;;;;;28.60;18.55;;;;;;;;;;6244329;28;20056;-57
2023/09/03 06:21:30;;;;;;;27.20;18.05;;;;;;;;;;6258477;28;20045;-58
2023/09/03 06:24:31;;;;;;;27.50;17.65;;;;;;;;;;6251799;28;20041;-58
2023/09/03 06:27:32;;;;;;;23.58;16.38;;;;;;;;;;6243313;28;20048;-57
2023/09/03 06:30:33;;;;;;;28.08;17.63;;;;;;;;;;6248640;28;20805;-57
2023/09/03 06:33:33;;;;;;;26.25;16.42;;;;;;;;;;6261900;28;20584;-59
2023/09/03 06:36:34;;;;;;;26.40;17.52;;;;;;;;;;6256807;28;20048;-57
2023/09/03 06:39:34;;;;;;;24.27;16.33;;;;;;;;;;6248521;28;20411;-54
2023/09/03 06:42:35;;;;;;;23.88;14.82;;;;;;;;;;6249147;28;20056;-57
2023/09/03 06:45:36;;;;;;;23.90;15.57;;;;;;;;;;6244991;28;20054;-59
2023/09/03 06:48:37;;;;;;;20.20;14.80;;;;;;;;;;6275785;28;20049;-57
2023/09/03 06:51:37;;;;;;;25.23;14.95;;;;;;;;;;6245091;28;20048;-58
2023/09/03 06:54:38;;;;;;;22.50;14.30;;;;;;;;;;6243964;28;20095;-55
2023/09/03 06:57:38;;;;;;;16.85;13.05;;;;;;;;;;6245956;28;20037;-57
2023/09/03 07:00:39;;;;;;;16.75;12.15;;;;;;;;;;6242127;28;20071;-58
2023/09/03 07:03:39;;;;;;;18.47;12.20;;;;;;;;;;6246411;28;20038;-57
2023/09/03 07:06:40;;;;;;;16.85;12.18;;;;;;;;;;6248647;28;20515;-58
2023/09/03 07:09:41;;;;;;;17.98;11.98;;;;;;;;;;6248528;28;20041;-57
2023/09/03 07:12:41;;;;;;;16.95;11.13;;;;;;;;;;6245397;28;20484;-57
2023/09/03 07:15:42;;;;;;;15.87;11.60;;;;;;;;;;6244070;28;20501;-57
2023/09/03 07:18:42;;;;;;;18.58;12.68;;;;;;;;;;6244825;28;20084;-58
2023/09/03 07:21:43;;;;;;;18.40;10.98;;;;;;;;;;6244951;28;20515;-58
2023/09/03 07:24:44;;;;;;;15.27;10.60;;;;;;;;;;6245164;28;20041;-58
2023/09/03 07:27:44;;;;;;;15.00;10.48;;;;;;;;;;6242276;28;20138;-58
2023/09/03 07:30:45;;;;;;;15.48;10.40;;;;;;;;;;6255169;28;20049;-57
2023/09/03 07:33:46;;;;;;;14.20;9.87;;;;;;;;;;6255143;28;20048;-58
2023/09/03 07:36:46;;;;;;;13.40;9.33;;;;;;;;;;6258512;28;20040;-57
2023/09/03 07:39:47;;;;;;;11.67;8.40;;;;;;;;;;6254648;28;20552;-58
2023/09/03 07:42:48;;;;;;;11.20;8.33;;;;;;;;;;6258089;28;20049;-57
2023/09/03 07:45:48;;;;;;;13.70;8.50;;;;;;;;;;6255941;28;20048;-58
2023/09/03 07:48:49;;;;;;;13.13;9.00;;;;;;;;;;6259316;28;20099;-59
2023/09/03 07:51:49;;;;;;;12.37;8.83;;;;;;;;;;6257120;28;20053;-58
2023/09/03 07:54:50;;;;;;;11.63;9.07;;;;;;;;;;6245748;28;20132;-57
2023/09/03 07:57:50;;;;;;;14.73;9.23;;;;;;;;;;6255907;28;20045;-56
2023/09/03 08:00:52;;;;;;;15.37;8.73;;;;;;;;;;6256046;28;20072;-57
2023/09/03 08:03:56;;;;;;;14.43;9.60;;;;;;;;;;6245296;28;20134;-58
2023/09/03 08:06:57;;;;;;;15.07;8.90;;;;;;;;;;6243777;28;20044;-57
2023/09/03 08:09:57;;;;;;;12.43;9.10;;;;;;;;;;6243540;28;20049;-58
2023/09/03 08:12:58;;;;;;;13.23;8.60;;;;;;;;;;6243575;28;20722;-58
2023/09/03 08:15:58;;;;;;;12.83;9.10;;;;;;;;;;6244513;28;20300;-59
2023/09/03 08:18:59;;;;;;;13.23;9.07;;;;;;;;;;6243863;28;20065;-58
2023/09/03 08:22:00;;;;;;;13.43;8.90;;;;;;;;;;6262061;28;20052;-58
2023/09/03 08:25:01;;;;;;;15.50;9.02;;;;;;;;;;6263511;28;20040;-59
2023/09/03 08:28:02;;;;;;;11.60;8.40;;;;;;;;;;6265183;28;20037;-56
2023/09/03 08:31:03;;;;;;;13.07;8.50;;;;;;;;;;6261705;28;20052;-57
2023/09/03 08:34:03;;;;;;;14.10;9.50;;;;;;;;;;6265200;28;20427;-55
2023/09/03 08:37:04;;;;;;;13.13;9.57;;;;;;;;;;6264695;28;20783;-58
2023/09/03 08:40:05;;;;;;;18.50;11.00;;;;;;;;;;6262244;28;20056;-58
2023/09/03 08:43:07;;;;;;;13.45;9.80;;;;;;;;;;6265013;28;20098;-58
2023/09/03 08:46:10;;;;;;;16.80;10.70;;;;;;;;;;6266727;28;20049;-58
2023/09/03 08:49:12;;;;;;;12.88;9.57;;;;;;;;;;6263644;28;20443;-58
2023/09/03 08:52:13;;;;;;;14.13;10.20;;;;;;;;;;6259325;28;20053;-59
2023/09/03 08:55:14;;;;;;;15.95;11.35;;;;;;;;;;6267951;28;20060;-59
2023/09/03 08:58:15;;;;;;;14.50;10.90;;;;;;;;;;6255534;28;20057;-59
2023/09/03 09:01:17;;;;;;;14.38;9.48;;;;;;;;;;6246451;28;20057;-57
2023/09/03 09:04:17;;;;;;;15.60;10.13;;;;;;;;;;6257466;28;20071;-59
2023/09/03 09:07:19;;;;;;;14.65;9.77;;;;;;;;;;6267854;28;20041;-55
2023/09/03 09:10:23;;;;;;;13.30;10.23;;;;;;;;;;6266685;28;20076;-57
2023/09/03 09:13:24;;;;;;;15.25;11.48;;;;;;;;;;6267432;28;20293;-59
2023/09/03 09:16:25;;;;;;;15.93;11.82;;;;;;;;;;6267612;28;20049;-56
2023/09/03 09:19:26;;;;;;;18.08;12.48;;;;;;;;;;6264822;28;20044;-56
2023/09/03 09:22:26;;;;;;;15.80;12.50;;;;;;;;;;6253922;28;20072;-58
2023/09/03 09:25:27;;;;;;;17.90;13.20;;;;;;;;;;6267656;28;20063;-58
2023/09/03 09:28:28;;;;;;;18.27;13.70;;;;;;;;;;6267578;28;20132;-58
2023/09/03 09:31:33;;;;;;;18.60;13.70;;;;;;;;;;6261850;28;20052;-57
2023/09/03 09:34:41;;;;;;;20.30;14.13;;;;;;;;;;6267768;28;20048;-58
2023/09/03 09:37:42;;;;;;;18.13;13.32;;;;;;;;;;6267501;28;20067;-58
2023/09/03 09:40:43;;;;;;;20.93;14.73;;;;;;;;;;6266292;28;20041;-59
2023/09/03 09:43:47;;;;;;;17.63;13.02;;;;;;;;;;6266853;28;20052;-59
2023/09/03 09:46:47;;;;;;;19.33;14.90;;;;;;;;;;6265900;28;20071;-56
2023/09/03 09:49:48;;;;;;;18.47;13.27;;;;;;;;;;6267371;28;20049;-58
2023/09/03 09:52:49;;;;;;;17.43;12.67;;;;;;;;;;6266153;28;20130;-59
2023/09/03 09:56:07;;;;;;;15.50;11.37;;;;;;;;;;6266317;28;20045;-58
2023/09/03 09:59:10;;;;;;;11.63;9.40;;;;;;;;;;6267476;28;20061;-58
2023/09/03 10:02:15;;;;;;;13.07;10.38;;;;;;;;;;6262471;28;20045;-60
2023/09/03 10:05:15;;;;;;;14.60;11.85;;;;;;;;;;6247422;28;20511;-57
2023/09/03 10:08:16;;;;;;;17.13;12.00;;;;;;;;;;6246784;28;20359;-56
2023/09/03 10:11:19;;;;;;;13.73;11.53;;;;;;;;;;6253064;28;20431;-58
2023/09/03 10:14:19;;;;;;;14.65;11.02;;;;;;;;;;6263111;28;20066;-59
2023/09/03 10:17:20;;;;;;;14.20;11.17;;;;;;;;;;6258354;28;20041;-60
2023/09/03 10:20:21;;;;;;;14.63;10.93;;;;;;;;;;6248203;28;20075;-58
2023/09/03 10:23:28;;;;;;;14.53;10.93;;;;;;;;;;6246161;28;20503;-59
2023/09/03 10:26:40;;;;;;;15.75;10.93;;;;;;;;;;6245476;28;20050;-59
2023/09/03 10:29:42;;;;;;;13.55;9.70;;;;;;;;;;6247417;28;20049;-58
2023/09/03 10:32:44;;;;;;;13.00;9.80;;;;;;;;;;6248423;28;20399;-59
2023/09/03 10:36:15;;;;;;;13.07;9.52;;;;;;;;;;6246320;28;20056;-58
2023/09/03 10:39:22;;;;;;;12.48;9.02;;;;;;;;;;6249349;28;20054;-59
2023/09/03 10:42:26;;;;;;;12.52;9.32;;;;;;;;;;6247355;28;20053;-58
2023/09/03 10:45:26;;;;;;;13.82;9.20;;;;;;;;;;6245085;28;20042;-60
2023/09/03 10:48:29;;;;;;;11.30;9.57;;;;;;;;;;6246838;28;20029;-59
2023/09/03 10:51:35;;;;;;;11.40;8.48;;;;;;;;;;6248336;28;20053;-58
2023/09/03 10:54:35;;;;;;;14.10;8.10;;;;;;;;;;6246731;28;20526;-58
2023/09/03 10:57:36;;;;;;;11.63;8.43;;;;;;;;;;6246770;28;20046;-59
2023/09/03 11:00:37;;;;;;;11.67;8.03;;;;;;;;;;6266291;28;20079;-59
2023/09/03 11:03:48;;;;;;;10.50;8.13;;;;;;;;;;6251235;28;20472;-58
2023/09/03 11:07:29;;;;;;;10.70;8.13;;;;;;;;;;6244927;28;20096;-59
2023/09/03 11:10:29;;;;;;;9.88;8.75;;;;;;;;;;6244236;28;20141;-57
2023/09/03 11:13:30;;;;;;;10.67;8.33;;;;;;;;;;6249025;28;20484;-59
2023/09/03 11:16:33;;;;;;;12.15;8.38;;;;;;;;;;6265396;28;20052;-56
2023/09/03 11:19:40;;;;;;;10.90;7.15;;;;;;;;;;6270053;28;20068;-59
2023/09/03 11:22:41;;;;;;;8.82;7.22;;;;;;;;;;6264041;28;20556;-59
2023/09/03 11:25:41;;;;;;;11.33;7.00;;;;;;;;;;6263261;28;20044;-59
2023/09/03 11:28:46;;;;;;;8.53;7.60;;;;;;;;;;6259511;28;20135;-57
2023/09/03 11:31:50;;;;;;;9.88;7.80;;;;;;;;;;6259309;28;20056;-56
2023/09/03 11:34:59;;;;;;;9.50;6.78;;;;;;;;;;6263903;28;20044;-58
2023/09/03 11:37:59;;;;;;;9.07;6.60;;;;;;;;;;6265059;28;20481;-58
2023/09/03 11:41:01;;;;;;;8.50;5.50;;;;;;;;;;6253031;28;20036;-58
2023/09/03 11:44:01;;;;;;;9.25;6.40;;;;;;;;;;6255870;28;20083;-59
2023/09/03 11:47:03;;;;;;;7.27;5.87;;;;;;;;;;6264533;28;20045;-59
2023/09/03 11:50:13;;;;;;;7.25;5.95;;;;;;;;;;6263014;28;20041;-59
2023/09/03 11:53:13;;;;;;;9.32;5.88;;;;;;;;;;6254660;28;20052;-58
2023/09/03 11:56:17;;;;;;;7.50;5.57;;;;;;;;;;6264040;28;20118;-59
2023/09/03 11:59:18;;;;;;;9.18;5.68;;;;;;;;;;6263931;28;20749;-59
2023/09/03 12:02:19;;;;;;;9.82;6.03;;;;;;;;;;6260076;28;20041;-59
2023/09/03 12:05:20;;;;;;;20.67;5.60;;;;;;;;;;6264265;28;20178;-59
2023/09/03 12:08:21;;;;;;;7.70;5.60;;;;;;;;;;6257746;28;20117;-57
2023/09/03 12:11:28;;;;;;;6.50;4.90;;;;;;;;;;6256502;28;20049;-55
2023/09/03 12:14:29;;;;;;;8.77;5.68;;;;;;;;;;6264497;28;20053;-59
2023/09/03 12:17:30;;;;;;;8.63;5.80;;;;;;;;;;6264059;28;20495;-60
2023/09/03 12:20:45;;;;;;;7.50;5.20;;;;;;;;;;6268409;28;20051;-55
2023/09/03 12:23:46;;;;;;;9.15;6.10;;;;;;;;;;6269085;28;20132;-59
2023/09/03 12:26:47;;;;;;;7.07;4.87;;;;;;;;;;6269280;28;20053;-60
2023/09/03 12:29:54;;;;;;;8.73;5.38;;;;;;;;;;6269312;28;20037;-60
2023/09/03 12:32:54;;;;;;;11.77;5.68;;;;;;;;;;6267539;28;20091;-57
2023/09/03 12:36:11;;;;;;;8.50;5.43;;;;;;;;;;6269480;28;20072;-58
2023/09/03 12:39:12;;;;;;;8.50;5.18;;;;;;;;;;6269462;28;20052;-60
2023/09/03 12:42:12;;;;;;;7.53;5.27;;;;;;;;;;6268285;28;20458;-61
2023/09/03 12:45:13;;;;;;;7.80;5.60;;;;;;;;;;6268731;28;20048;-61
2023/09/03 12:48:14;;;;;;;10.27;5.87;;;;;;;;;;6268646;28;20440;-58
2023/09/03 12:51:16;;;;;;;8.47;6.27;;;;;;;;;;6259756;28;20053;-60
2023/09/03 12:54:16;;;;;;;8.57;5.93;;;;;;;;;;6257324;28;20041;-60
2023/09/03 12:57:17;;;;;;;7.63;6.03;;;;;;;;;;6258917;28;20045;-60
2023/09/03 13:00:18;;;;;;;8.93;6.00;;;;;;;;;;6257499;28;20096;-60
2023/09/03 13:03:19;;;;;;;9.23;6.30;;;;;;;;;;6256943;28;20052;-59
2023/09/03 13:06:20;;;;;;;7.82;6.05;;;;;;;;;;6260155;28;20044;-60
2023/09/03 13:09:20;;;;;;;10.27;6.20;;;;;;;;;;6258589;28;20106;-60
2023/09/03 13:12:21;;;;;;;8.33;5.93;;;;;;;;;;6254433;28;20597;-61
2023/09/03 13:15:21;;;;;;;7.97;5.40;;;;;;;;;;6258580;28;20437;-60
2023/09/03 13:18:22;;;;;;;9.07;5.60;;;;;;;;;;6258865;28;20496;-58
2023/09/03 13:21:23;;;;;;;7.30;5.60;;;;;;;;;;6256717;28;20049;-60
2023/09/03 13:24:24;;;;;;;8.82;5.82;;;;;;;;;;6256548;28;20416;-60
2023/09/03 13:27:24;;;;;;;9.97;6.50;;;;;;;;;;6258375;28;20102;-60
2023/09/03 13:30:25;;;;;;;11.70;6.43;;;;;;;;;;6259355;28;20036;-60
2023/09/03 13:33:25;;;;;;;8.77;6.40;;;;;;;;;;6263928;28;20053;-56
2023/09/03 13:36:26;;;;;;;8.30;6.10;;;;;;;;;;6249419;28;20307;-60
2023/09/03 13:39:27;;;;;;;8.07;5.80;;;;;;;;;;6246239;28;20476;-60
2023/09/03 13:42:27;;;;;;;8.60;5.63;;;;;;;;;;6246689;28;20068;-61
2023/09/03 13:45:28;;;;;;;8.30;5.53;;;;;;;;;;6255628;28;20508;-60
2023/09/03 13:48:28;;;;;;;8.03;5.90;;;;;;;;;;6245616;28;20065;-60
2023/09/03 13:51:29;;;;;;;8.20;5.70;;;;;;;;;;6245246;28;20045;-60
2023/09/03 13:54:30;;;;;;;12.20;5.57;;;;;;;;;;6247746;28;20496;-57
2023/09/03 13:57:30;;;;;;;8.70;5.60;;;;;;;;;;6248881;28;20034;-56
2023/09/03 14:00:31;;;;;;;8.70;6.00;;;;;;;;;;6247784;28;20105;-60
2023/09/03 14:03:31;;;;;;;8.50;5.90;;;;;;;;;;6246886;28;20492;-58
2023/09/03 14:06:34;;;;;;;8.30;6.00;;;;;;;;;;6248693;28;20060;-59
2023/09/03 14:09:34;;;;;;;9.05;6.05;;;;;;;;;;6248928;28;20042;-58
2023/09/03 14:12:35;;;;;;;10.20;6.40;;;;;;;;;;6247176;28;20064;-59
2023/09/03 14:15:36;;;;;;;9.10;6.60;;;;;;;;;;6244318;28;20033;-59
2023/09/03 14:18:36;;;;;;;10.73;6.30;;;;;;;;;;6247457;28;20068;-59
2023/09/03 14:21:37;;;;;;;9.67;7.33;;;;;;;;;;6247413;28;20298;-59
2023/09/03 14:24:38;;;;;;;10.23;6.47;;;;;;;;;;6246735;28;20052;-57
2023/09/03 14:27:38;;;;;;;11.03;6.17;;;;;;;;;;6248826;28;20041;-59
2023/09/03 14:30:40;;;;;;;8.80;6.30;;;;;;;;;;6246531;28;20051;-59
2023/09/03 14:33:41;;;;;;;8.73;6.10;;;;;;;;;;6244857;28;20416;-55
2023/09/03 14:36:41;;;;;;;7.77;6.17;;;;;;;;;;6244668;28;20135;-57
2023/09/03 14:39:42;;;;;;;9.30;6.67;;;;;;;;;;6245937;28;20049;-58
2023/09/03 14:42:42;;;;;;;8.80;6.23;;;;;;;;;;6244988;28;20443;-55
2023/09/03 14:45:43;;;;;;;8.77;6.23;;;;;;;;;;6241471;28;20389;-55
2023/09/03 14:48:44;;;;;;;10.17;6.47;;;;;;;;;;6247361;28;20056;-58
2023/09/03 14:51:44;;;;;;;9.07;6.30;;;;;;;;;;6243111;28;21470;-59
2023/09/03 14:54:45;;;;;;;8.40;5.73;;;;;;;;;;6248751;28;20053;-59
2023/09/03 14:57:46;;;;;;;9.30;6.40;;;;;;;;;;6247601;28;20168;-59
2023/09/03 15:00:47;;;;;;;7.87;6.07;;;;;;;;;;6247084;28;20144;-60
2023/09/03 15:03:47;;;;;;;11.50;6.33;;;;;;;;;;6242791;28;20094;-59
2023/09/03 15:06:48;;;;;;;8.52;5.55;;;;;;;;;;6249704;28;20036;-59
2023/09/03 15:09:52;;;;;;;9.63;6.03;;;;;;;;;;6251015;28;20052;-59
2023/09/03 15:12:53;;;;;;;8.23;5.47;;;;;;;;;;6243595;28;20053;-58
2023/09/03 15:15:53;;;;;;;9.07;4.80;;;;;;;;;;6248313;28;20094;-59
2023/09/03 15:18:54;;;;;;;7.97;4.77;;;;;;;;;;6244572;28;20480;-58
2023/09/03 15:21:54;;;;;;;10.47;4.60;;;;;;;;;;6241024;28;20037;-60
2023/09/03 15:24:55;;;;;;;8.00;4.60;;;;;;;;;;6241759;28;20045;-58
2023/09/03 15:27:56;;;;;;;6.07;4.40;;;;;;;;;;6242596;28;20053;-59
2023/09/03 15:30:57;;;;;;;7.90;4.50;;;;;;;;;;6244518;28;20045;-59
2023/09/03 15:33:57;;;;;;;7.97;4.90;;;;;;;;;;6242116;28;20098;-58
2023/09/03 15:36:59;;;;;;;6.80;4.57;;;;;;;;;;6242315;28;20091;-59
2023/09/03 15:39:59;;;;;;;7.28;4.60;;;;;;;;;;6244594;28;20049;-58
2023/09/03 15:43:01;;;;;;;7.17;4.40;;;;;;;;;;6237359;28;20549;-59
2023/09/03 15:46:01;;;;;;;7.07;4.40;;;;;;;;;;6250585;28;20049;-59
2023/09/03 15:49:05;;;;;;;7.13;4.73;;;;;;;;;;6250381;28;20770;-59
2023/09/03 15:52:06;;;;;;;8.93;4.78;;;;;;;;;;6250478;28;20052;-59
2023/09/03 15:55:07;;;;;;;6.70;4.50;;;;;;;;;;6251230;28;20575;-59
2023/09/03 15:58:08;;;;;;;8.70;4.90;;;;;;;;;;6252718;28;20102;-59
2023/09/03 16:01:10;;;;;;;8.60;5.18;;;;;;;;;;6249538;28;20393;-59
2023/09/03 16:04:10;;;;;;;9.50;4.88;;;;;;;;;;6248491;28;20930;-58
2023/09/03 16:07:11;;;;;;;7.53;4.73;;;;;;;;;;6253597;28;20069;-60
2023/09/03 16:10:11;;;;;;;7.20;4.87;;;;;;;;;;6251823;28;20523;-59
2023/09/03 16:13:12;;;;;;;10.17;6.10;;;;;;;;;;6247855;28;20052;-59
2023/09/03 16:16:14;;;;;;;12.17;6.37;;;;;;;;;;6252466;28;20050;-60
2023/09/03 16:19:14;;;;;;;8.07;5.45;;;;;;;;;;6251545;28;20056;-59
2023/09/03 16:22:15;;;;;;;7.90;5.13;;;;;;;;;;6248920;28;20385;-56
2023/09/03 16:25:16;;;;;;;7.70;4.77;;;;;;;;;;6252090;28;20087;-53
2023/09/03 16:28:16;;;;;;;7.87;5.00;;;;;;;;;;6252849;28;20107;-56
2023/09/03 16:31:18;;;;;;;8.43;5.10;;;;;;;;;;6251709;28;20051;-56
2023/09/03 16:34:18;;;;;;;7.72;4.70;;;;;;;;;;6250507;28;20052;-60
2023/09/03 16:37:19;;;;;;;6.47;4.63;;;;;;;;;;6252762;28;20041;-60
2023/09/03 16:40:19;;;;;;;6.83;4.57;;;;;;;;;;6252465;28;20058;-59
2023/09/03 16:43:20;;;;;;;9.07;5.17;;;;;;;;;;6246677;28;20514;-59
2023/09/03 16:46:21;;;;;;;8.33;4.97;;;;;;;;;;6251930;28;20049;-59
2023/09/03 16:49:22;;;;;;;9.57;5.13;;;;;;;;;;6252606;28;20049;-59
2023/09/03 16:52:22;;;;;;;8.30;5.53;;;;;;;;;;6248650;28;20049;-60
2023/09/03 16:55:23;;;;;;;14.45;5.25;;;;;;;;;;6250817;28;20488;-58
2023/09/03 16:58:24;;;;;;;10.67;5.27;;;;;;;;;;6251971;28;20122;-59
2023/09/03 17:01:25;;;;;;;7.10;4.80;;;;;;;;;;6250513;28;20114;-59
2023/09/03 17:04:26;;;;;;;9.50;5.13;;;;;;;;;;6247573;28;20048;-55
2023/09/03 17:07:27;;;;;;;10.53;4.80;;;;;;;;;;6255790;28;20053;-61
2023/09/03 17:10:27;;;;;;;8.47;5.20;;;;;;;;;;6256699;28;20052;-58
2023/09/03 17:13:29;;;;;;;10.13;5.93;;;;;;;;;;6252190;28;20606;-60
2023/09/03 17:16:29;;;;;;;8.00;5.45;;;;;;;;;;6256698;28;20041;-58
2023/09/03 17:19:30;;;;;;;9.30;5.60;;;;;;;;;;6256167;28;20040;-57
2023/09/03 17:22:31;;;;;;;8.47;5.50;;;;;;;;;;6252311;28;20083;-58
2023/09/03 17:25:32;;;;;;;8.93;5.70;;;;;;;;;;6255147;28;20049;-59
2023/09/03 17:28:32;;;;;;;7.77;5.27;;;;;;;;;;6253543;28;20507;-54
2023/09/03 17:31:33;;;;;;;9.83;6.10;;;;;;;;;;6252953;28;20542;-60
2023/09/03 17:34:35;;;;;;;7.88;5.75;;;;;;;;;;6254217;28;20095;-59
2023/09/03 17:37:37;;;;;;;9.70;6.23;;;;;;;;;;6255844;28;20499;-58
2023/09/03 17:40:38;;;;;;;9.88;6.10;;;;;;;;;;6256448;28;20045;-60
2023/09/03 17:43:39;;;;;;;10.20;6.60;;;;;;;;;;6248680;28;20405;-57
2023/09/03 17:46:41;;;;;;;11.93;7.03;;;;;;;;;;6255038;28;20048;-60
2023/09/03 17:49:42;;;;;;;10.07;6.35;;;;;;;;;;6254064;28;20045;-59
2023/09/03 17:52:42;;;;;;;10.10;6.80;;;;;;;;;;6252135;28;20420;-60